Time;durP1;ratioP1;P1;durP2;ratioP2;P2;SDS_P1;SDS_P2;PMS_P1;PMS_P2;Temp;Humidity;BMP_temperature;BMP_pressure;BME280_temperature;BME280_humidity;BME280_pressure;Samples;Min_cycle;Max_cycle;Signal;HPM_P1;HPM_P2
2021/06/10 00:00:24;;;;;;;3.30;3.00;;;15.90;99.90;;;;;;4154738;28;20037;-65
2021/06/10 00:02:26;;;;;;;4.18;2.92;;;15.80;99.90;;;;;;4169624;28;20024;-62
2021/06/10 00:04:28;;;;;;;6.28;3.28;;;15.80;99.90;;;;;;4159034;28;20029;-64
2021/06/10 00:06:29;;;;;;;5.93;3.35;;;15.70;99.90;;;;;;4155608;28;20469;-65
2021/06/10 00:08:32;;;;;;;3.47;3.10;;;15.70;99.90;;;;;;4155968;28;20021;-65
2021/06/10 00:10:35;;;;;;;5.15;2.97;;;15.60;99.90;;;;;;4156060;28;20049;-62
2021/06/10 00:12:37;;;;;;;3.92;3.25;;;15.60;99.90;;;;;;4138293;28;20063;-62
2021/06/10 00:14:39;;;;;;;5.55;3.13;;;15.60;99.90;;;;;;4157194;28;20083;-63
2021/06/10 00:16:41;;;;;;;5.40;3.60;;;15.60;99.90;;;;;;4155648;28;20026;-62
2021/06/10 00:18:43;;;;;;;4.90;3.17;;;15.60;99.90;;;;;;4155903;28;20485;-65
2021/06/10 00:20:44;;;;;;;4.13;3.13;;;15.60;99.90;;;;;;4155227;28;20492;-65
2021/06/10 00:22:46;;;;;;;3.78;2.85;;;15.50;99.90;;;;;;4155032;28;20038;-62
2021/06/10 00:24:47;;;;;;;6.77;3.30;;;15.50;99.90;;;;;;4164798;28;20044;-64
2021/06/10 00:26:48;;;;;;;5.27;3.53;;;15.50;99.90;;;;;;4169236;28;20045;-62
2021/06/10 00:28:49;;;;;;;5.13;3.53;;;15.50;99.90;;;;;;4172377;28;20095;-64
2021/06/10 00:30:50;;;;;;;4.37;3.17;;;15.50;99.90;;;;;;4171286;28;20064;-63
2021/06/10 00:32:52;;;;;;;3.83;3.27;;;15.60;99.90;;;;;;4172175;28;20087;-64
2021/06/10 00:34:53;;;;;;;4.47;2.72;;;15.60;99.90;;;;;;4170445;28;20035;-64
2021/06/10 00:36:55;;;;;;;4.70;3.60;;;15.60;99.90;;;;;;4171579;28;20044;-64
2021/06/10 00:38:57;;;;;;;6.68;3.10;;;15.60;99.90;;;;;;4171004;28;20040;-64
2021/06/10 00:40:58;;;;;;;4.75;2.88;;;15.60;99.90;;;;;;4172580;28;20082;-63
2021/06/10 00:42:59;;;;;;;4.87;3.10;;;15.50;99.90;;;;;;4169667;28;20477;-63
2021/06/10 00:45:01;;;;;;;4.32;3.05;;;15.50;99.90;;;;;;4172224;28;20059;-63
2021/06/10 00:47:03;;;;;;;3.47;2.90;;;15.50;99.90;;;;;;4171855;28;20457;-64
2021/06/10 00:49:04;;;;;;;6.40;2.90;;;15.50;99.90;;;;;;4171658;28;20864;-63
2021/06/10 00:51:07;;;;;;;4.20;3.30;;;15.40;99.90;;;;;;4172006;28;20036;-64
2021/06/10 00:53:08;;;;;;;3.53;3.23;;;15.40;99.90;;;;;;4171986;28;20071;-64
2021/06/10 00:55:10;;;;;;;4.67;3.23;;;15.40;99.90;;;;;;4170421;28;20102;-63
2021/06/10 00:57:11;;;;;;;6.93;3.10;;;15.30;99.90;;;;;;4170361;28;20451;-63
2021/06/10 00:59:12;;;;;;;3.80;3.47;;;15.30;99.90;;;;;;4171243;28;20107;-63
2021/06/10 01:01:13;;;;;;;7.07;3.50;;;15.30;99.90;;;;;;4174345;28;20147;-64
2021/06/10 01:03:14;;;;;;;4.93;3.30;;;15.30;99.90;;;;;;4175067;28;20297;-64
2021/06/10 01:05:16;;;;;;;4.53;3.33;;;15.30;99.90;;;;;;4174484;28;20035;-64
2021/06/10 01:07:29;;;;;;;6.30;3.20;;;15.30;99.90;;;;;;4175128;28;20025;-63
2021/06/10 01:09:33;;;;;;;3.93;2.80;;;15.20;99.90;;;;;;4174260;28;20041;-63
2021/06/10 01:11:51;;;;;;;5.80;3.27;;;15.20;99.90;;;;;;4175075;28;20028;-64
2021/06/10 01:14:35;;;;;;;4.47;3.50;;;15.20;99.90;;;;;;4171997;28;20028;-63
2021/06/10 01:16:41;;;;;;;4.10;3.07;;;15.20;99.90;;;;;;4127595;28;20029;-62
2021/06/10 01:18:43;;;;;;;7.17;3.93;;;15.10;99.90;;;;;;4173896;28;20099;-64
2021/06/10 01:20:44;;;;;;;4.30;3.27;;;15.10;99.90;;;;;;4175224;28;20037;-63
2021/06/10 01:22:58;;;;;;;4.27;3.30;;;15.00;99.90;;;;;;4172115;28;20428;-62
2021/06/10 01:25:31;;;;;;;5.13;3.27;;;15.00;99.90;;;;;;4174945;28;20036;-63
2021/06/10 01:27:39;;;;;;;5.13;3.23;;;15.00;99.90;;;;;;4173348;28;20071;-61
2021/06/10 01:29:41;;;;;;;5.60;3.47;;;14.90;99.90;;;;;;4167404;28;20041;-62
2021/06/10 01:31:43;;;;;;;4.53;3.80;;;14.80;99.90;;;;;;4157058;28;20091;-63
2021/06/10 01:33:54;;;;;;;4.27;3.33;;;14.80;99.90;;;;;;4158026;28;20052;-62
2021/06/10 01:36:02;;;;;;;4.47;3.50;;;14.80;99.90;;;;;;4156807;28;20091;-64
2021/06/10 01:38:05;;;;;;;5.30;3.37;;;14.70;99.90;;;;;;4157888;28;20038;-64
2021/06/10 01:40:07;;;;;;;4.27;3.07;;;14.70;99.90;;;;;;4157657;28;20049;-61
2021/06/10 01:42:11;;;;;;;4.83;3.20;;;14.60;99.90;;;;;;4158383;28;20087;-64
2021/06/10 01:44:15;;;;;;;4.43;3.27;;;14.60;99.90;;;;;;4156712;28;20033;-62
2021/06/10 01:46:17;;;;;;;5.27;3.27;;;14.50;99.90;;;;;;4157604;28;20757;-63
2021/06/10 01:48:19;;;;;;;5.47;3.30;;;14.40;99.90;;;;;;4157578;28;20181;-64
2021/06/10 01:50:21;;;;;;;7.03;3.40;;;14.40;99.90;;;;;;4158125;28;20041;-64
2021/06/10 01:52:24;;;;;;;5.57;3.57;;;14.40;99.90;;;;;;4157353;28;20559;-62
2021/06/10 01:54:26;;;;;;;6.03;3.37;;;14.40;99.90;;;;;;4159811;28;20029;-63
2021/06/10 01:56:29;;;;;;;3.93;3.00;;;14.40;99.90;;;;;;4173897;28;20091;-63
2021/06/10 01:58:30;;;;;;;4.00;3.13;;;14.40;99.90;;;;;;4173694;28;20083;-63
2021/06/10 02:00:31;;;;;;;7.00;3.50;;;14.40;99.90;;;;;;4169674;28;20519;-63
2021/06/10 02:02:35;;;;;;;4.83;3.20;;;14.40;99.90;;;;;;4157452;28;20038;-63
2021/06/10 02:04:37;;;;;;;5.87;3.40;;;14.40;99.90;;;;;;4156636;28;20037;-64
2021/06/10 02:06:41;;;;;;;5.40;3.30;;;14.40;99.90;;;;;;4156534;28;20045;-63
2021/06/10 02:08:45;;;;;;;3.50;3.20;;;14.40;99.90;;;;;;4156265;28;20456;-64
2021/06/10 02:10:50;;;;;;;9.07;3.70;;;14.40;99.90;;;;;;4156678;28;20095;-64
2021/06/10 02:12:52;;;;;;;5.17;3.83;;;14.40;99.90;;;;;;4158907;28;20041;-64
2021/06/10 02:14:54;;;;;;;8.37;3.70;;;14.40;99.90;;;;;;4173305;28;20049;-64
2021/06/10 02:16:56;;;;;;;4.20;3.53;;;14.40;99.90;;;;;;4173757;28;20074;-63
2021/06/10 02:18:57;;;;;;;3.97;3.27;;;14.40;99.90;;;;;;4173197;28;20481;-63
2021/06/10 02:21:03;;;;;;;4.93;3.30;;;14.40;99.90;;;;;;4174083;28;20075;-63
2021/06/10 02:23:05;;;;;;;7.30;3.17;;;14.40;99.90;;;;;;4170856;28;20102;-63
2021/06/10 02:25:07;;;;;;;8.10;3.43;;;14.40;99.90;;;;;;4173872;28;20040;-63
2021/06/10 02:27:08;;;;;;;10.67;3.67;;;14.40;99.90;;;;;;4171921;28;20091;-63
2021/06/10 02:29:10;;;;;;;5.57;3.30;;;14.40;99.90;;;;;;4173265;28;20469;-63
2021/06/10 02:31:12;;;;;;;4.00;3.33;;;14.30;99.90;;;;;;4173099;28;20048;-63
2021/06/10 02:33:16;;;;;;;5.07;2.97;;;14.30;99.90;;;;;;4173153;28;20075;-63
2021/06/10 02:35:17;;;;;;;7.77;3.73;;;14.30;99.90;;;;;;4173570;28;20344;-64
2021/06/10 02:37:21;;;;;;;6.13;3.57;;;14.30;99.90;;;;;;4173582;28;20087;-63
2021/06/10 02:39:22;;;;;;;6.40;3.37;;;14.30;99.90;;;;;;4154982;28;20042;-64
2021/06/10 02:41:27;;;;;;;9.37;3.80;;;14.30;99.90;;;;;;4162432;28;20083;-64
2021/06/10 02:43:32;;;;;;;7.57;3.87;;;14.30;99.90;;;;;;4168965;28;20460;-64
2021/06/10 02:45:34;;;;;;;7.60;3.43;;;14.40;99.90;;;;;;4172498;28;20082;-64
2021/06/10 02:47:37;;;;;;;6.30;4.00;;;14.40;99.90;;;;;;4173526;28;20075;-63
2021/06/10 02:49:44;;;;;;;4.17;3.43;;;14.40;99.90;;;;;;4154229;28;20099;-63
2021/06/10 02:51:46;;;;;;;4.33;3.40;;;14.40;99.90;;;;;;4173104;28;20029;-64
2021/06/10 02:53:49;;;;;;;9.53;3.47;;;14.50;99.90;;;;;;4137357;28;20064;-65
2021/06/10 02:55:53;;;;;;;6.33;3.47;;;14.60;99.90;;;;;;4155935;28;20054;-62
2021/06/10 02:57:57;;;;;;;7.27;3.43;;;14.70;99.90;;;;;;4156304;28;20041;-64
2021/06/10 02:59:59;;;;;;;7.70;3.97;;;14.90;99.90;;;;;;4156904;28;20025;-64
2021/06/10 03:02:02;;;;;;;8.10;4.07;;;15.10;99.90;;;;;;4155180;28;20046;-63
2021/06/10 03:04:05;;;;;;;6.77;3.50;;;15.20;99.90;;;;;;4138963;28;20509;-64
2021/06/10 03:06:07;;;;;;;7.37;3.50;;;15.40;99.90;;;;;;4168739;28;20037;-63
2021/06/10 03:08:13;;;;;;;8.13;3.93;;;15.70;99.90;;;;;;4172839;28;20815;-64
2021/06/10 03:10:15;;;;;;;7.60;4.03;;;15.90;99.90;;;;;;4172366;28;20517;-64
2021/06/10 03:12:18;;;;;;;9.07;4.00;;;16.00;99.90;;;;;;4172806;28;20098;-63
2021/06/10 03:14:19;;;;;;;5.70;3.10;;;16.10;99.90;;;;;;4172654;28;20358;-64
2021/06/10 03:16:21;;;;;;;6.37;4.00;;;16.30;99.90;;;;;;4172669;28;20033;-63
2021/06/10 03:18:23;;;;;;;5.17;3.30;;;16.50;99.90;;;;;;4172591;28;20082;-63
2021/06/10 03:20:25;;;;;;;7.13;3.70;;;16.80;99.90;;;;;;4170892;28;20059;-64
2021/06/10 03:22:27;;;;;;;9.97;3.57;;;17.10;99.90;;;;;;4155669;28;20055;-64
2021/06/10 03:24:29;;;;;;;5.27;3.30;;;17.50;99.90;;;;;;4156073;28;20056;-62
2021/06/10 03:26:35;;;;;;;6.33;3.53;;;17.90;99.90;;;;;;4155686;28;20041;-64
2021/06/10 03:28:37;;;;;;;4.72;3.20;;;18.10;99.90;;;;;;4155873;28;20099;-63
2021/06/10 03:30:38;;;;;;;6.35;3.90;;;18.30;99.90;;;;;;4155884;28;20045;-63
2021/06/10 03:32:39;;;;;;;9.02;3.20;;;18.50;99.90;;;;;;4155872;28;20025;-64
2021/06/10 03:34:42;;;;;;;4.68;3.10;;;18.70;99.90;;;;;;4155573;28;20045;-62
2021/06/10 03:36:43;;;;;;;6.28;2.80;;;18.90;99.90;;;;;;4155628;28;20154;-62
2021/06/10 03:38:45;;;;;;;5.97;3.13;;;19.00;99.90;;;;;;4163912;28;20721;-63
2021/06/10 03:40:51;;;;;;;6.88;2.92;;;18.80;99.90;;;;;;4172870;28;20029;-65
2021/06/10 03:42:52;;;;;;;4.35;2.83;;;18.80;99.90;;;;;;4172495;28;20548;-64
2021/06/10 03:44:54;;;;;;;4.72;2.75;;;19.00;99.90;;;;;;4171842;28;20079;-64
2021/06/10 03:46:56;;;;;;;5.70;3.20;;;19.20;99.90;;;;;;4171776;28;20075;-64
2021/06/10 03:48:58;;;;;;;5.97;3.05;;;19.30;99.90;;;;;;4171142;28;20079;-64
2021/06/10 03:50:59;;;;;;;3.60;2.65;;;19.40;99.90;;;;;;4171543;28;20102;-63
2021/06/10 03:53:00;;;;;;;6.63;3.10;;;19.70;99.90;;;;;;4171791;28;20045;-63
2021/06/10 03:55:06;;;;;;;7.60;3.40;;;19.90;99.90;;;;;;4158292;28;20037;-64
2021/06/10 03:57:10;;;;;;;9.77;3.00;;;20.40;99.90;;;;;;4155483;28;20670;-63
2021/06/10 03:59:12;;;;;;;6.10;3.03;;;20.80;99.90;;;;;;4154964;28;20060;-63
2021/06/10 04:01:13;;;;;;;11.20;3.45;;;20.90;99.90;;;;;;4163747;28;20059;-62
2021/06/10 04:03:14;;;;;;;6.38;2.88;;;21.10;99.90;;;;;;4168472;28;20036;-64
2021/06/10 04:05:16;;;;;;;7.13;3.17;;;21.00;99.90;;;;;;4164345;28;20041;-63
2021/06/10 04:07:17;;;;;;;3.42;2.97;;;21.10;99.90;;;;;;4171314;28;20041;-64
2021/06/10 04:09:18;;;;;;;6.28;3.00;;;21.30;99.90;;;;;;4171584;28;20389;-62
2021/06/10 04:11:19;;;;;;;5.85;3.20;;;21.60;99.90;;;;;;4171351;28;20512;-65
2021/06/10 04:13:20;;;;;;;9.25;2.95;;;21.60;99.80;;;;;;4171482;28;20032;-64
2021/06/10 04:15:22;;;;;;;5.85;3.30;;;21.70;99.70;;;;;;4170178;28;20029;-63
2021/06/10 04:17:23;;;;;;;4.63;3.00;;;22.20;99.00;;;;;;4154189;28;20049;-63
2021/06/10 04:19:24;;;;;;;9.02;3.00;;;22.50;98.20;;;;;;4154140;28;20176;-61
2021/06/10 04:21:25;;;;;;;6.03;2.88;;;23.30;97.20;;;;;;4138143;28;20495;-64
2021/06/10 04:23:26;;;;;;;7.13;2.60;;;23.70;95.80;;;;;;4171403;28;20037;-64
2021/06/10 04:25:27;;;;;;;3.10;2.45;;;23.80;94.70;;;;;;4171385;28;20033;-64
2021/06/10 04:27:29;;;;;;;4.85;2.35;;;23.70;94.20;;;;;;4171494;28;20033;-62
2021/06/10 04:29:30;;;;;;;6.60;2.70;;;23.50;93.90;;;;;;4171698;28;20032;-64
2021/06/10 04:31:31;;;;;;;4.28;2.90;;;23.50;93.70;;;;;;4166408;28;20893;-63
2021/06/10 04:33:32;;;;;;;3.45;2.70;;;24.10;93.10;;;;;;4158781;28;20037;-62
2021/06/10 04:35:33;;;;;;;4.82;2.90;;;23.90;92.30;;;;;;4155632;28;20037;-63
2021/06/10 04:37:34;;;;;;;5.45;2.42;;;23.70;92.40;;;;;;4174548;28;20104;-64
2021/06/10 04:39:36;;;;;;;14.45;3.50;;;23.70;92.30;;;;;;4175225;28;20098;-63
2021/06/10 04:41:37;;;;;;;6.00;3.35;;;24.00;91.90;;;;;;4174451;28;20095;-63
2021/06/10 04:43:38;;;;;;;5.05;2.72;;;24.30;91.20;;;;;;4174702;28;20091;-63
2021/06/10 04:45:39;;;;;;;3.90;2.80;;;24.20;90.80;;;;;;4170635;28;20025;-63
2021/06/10 04:47:40;;;;;;;12.07;2.80;;;24.10;90.90;;;;;;4174747;28;20033;-64
2021/06/10 04:49:44;;;;;;;5.50;2.88;;;24.10;90.50;;;;;;4173461;28;20795;-64
2021/06/10 04:51:45;;;;;;;5.60;2.47;;;24.20;90.10;;;;;;4174590;28;20083;-64
2021/06/10 04:53:47;;;;;;;7.25;3.70;;;24.20;90.00;;;;;;4174163;28;20060;-66
2021/06/10 04:55:48;;;;;;;4.30;2.25;;;24.60;89.50;;;;;;4173402;28;20049;-63
2021/06/10 04:57:49;;;;;;;8.82;2.60;;;25.20;87.80;;;;;;4171824;28;20500;-62
2021/06/10 04:59:50;;;;;;;8.13;2.72;;;25.50;86.70;;;;;;4173670;28;20045;-63
2021/06/10 05:01:51;;;;;;;3.05;2.40;;;26.40;84.80;;;;;;4173632;28;20045;-65
2021/06/10 05:03:53;;;;;;;7.50;2.67;;;27.00;82.20;;;;;;4174409;28;20029;-65
2021/06/10 05:05:54;;;;;;;3.10;2.50;;;27.40;80.10;;;;;;4172743;28;20045;-62
2021/06/10 05:07:55;;;;;;;4.80;2.30;;;27.50;78.30;;;;;;4173045;28;20028;-64
2021/06/10 05:09:56;;;;;;;7.45;2.50;;;27.50;77.50;;;;;;4174302;28;20468;-64
2021/06/10 05:11:57;;;;;;;3.92;2.33;;;27.50;76.60;;;;;;4172519;28;20107;-63
2021/06/10 05:13:58;;;;;;;5.00;2.45;;;27.10;76.30;;;;;;4167766;28;20060;-63
2021/06/10 05:15:59;;;;;;;4.25;2.42;;;27.20;76.40;;;;;;4157034;28;20091;-64
2021/06/10 05:18:00;;;;;;;5.43;2.47;;;27.20;75.80;;;;;;4157590;28;20481;-62
2021/06/10 05:20:04;;;;;;;7.35;3.65;;;27.70;75.30;;;;;;4156990;28;20087;-62
2021/06/10 05:22:05;;;;;;;10.10;2.45;;;28.20;73.90;;;;;;4159363;28;20021;-61
2021/06/10 05:24:08;;;;;;;5.30;3.45;;;28.40;73.00;;;;;;4156767;28;20041;-62
2021/06/10 05:26:10;;;;;;;5.05;2.80;;;28.70;72.20;;;;;;4156608;28;20497;-61
2021/06/10 05:28:11;;;;;;;6.20;2.33;;;29.00;70.90;;;;;;4157768;28;20489;-62
2021/06/10 05:30:13;;;;;;;3.60;2.78;;;;;;;;;;4156837;28;20122;-61
2021/06/10 05:32:14;;;;;;;9.50;3.72;;;;;;;;;;4156815;28;20095;-62
2021/06/10 05:34:16;;;;;;;7.15;2.88;;;;;;;;;;4138515;28;20041;-63
2021/06/10 05:36:17;;;;;;;4.22;3.13;;;;;;;;;;4157685;28;20493;-62
2021/06/10 05:38:19;;;;;;;6.47;2.88;;;;;;;;;;4156319;28;20038;-63
2021/06/10 05:40:20;;;;;;;7.03;2.30;;;;;;;;;;4156702;28;20037;-62
2021/06/10 05:42:21;;;;;;;4.75;2.85;;;;;;;;;;4156331;28;20107;-62
2021/06/10 05:44:23;;;;;;;3.95;2.55;;;;;;;;;;4156773;28;20092;-62
2021/06/10 05:46:24;;;;;;;6.28;2.65;;;;;;;;;;4155726;28;20034;-62
2021/06/10 05:48:26;;;;;;;6.45;2.53;;;;;;;;;;4157075;28;20041;-62
2021/06/10 05:50:27;;;;;;;5.82;3.00;;;;;;;;;;4157227;28;20123;-63
2021/06/10 05:52:28;;;;;;;5.50;2.70;;;;;;;;;;4157134;28;20540;-62
2021/06/10 05:54:30;;;;;;;5.78;2.63;;;;;;;;;;4155649;28;20033;-62
2021/06/10 05:56:31;;;;;;;6.72;2.55;;;;;;;;;;4156987;28;20083;-62
2021/06/10 05:58:33;;;;;;;5.68;2.60;;;;;;;;;;4156840;28;20068;-62
2021/06/10 06:00:34;;;;;;;6.63;2.85;;;;;;;;;;4156623;28;20045;-61
2021/06/10 06:02:35;;;;;;;8.70;2.67;;;;;;;;;;4157382;28;20079;-62
2021/06/10 06:04:37;;;;;;;7.18;2.45;;;;;;;;;;4156718;28;20029;-62
2021/06/10 06:06:39;;;;;;;4.05;2.05;;;;;;;;;;4156846;28;20412;-63
2021/06/10 06:08:40;;;;;;;5.65;2.47;;;;;;;;;;4156152;28;20030;-62
2021/06/10 06:10:42;;;;;;;4.95;2.30;;;;;;;;;;4157226;28;20572;-63
2021/06/10 06:12:44;;;;;;;5.95;2.60;;;;;;;;;;4156802;28;20111;-62
2021/06/10 06:14:46;;;;;;;4.07;2.55;;;;;;;;;;4157156;28;20017;-63
2021/06/10 06:16:47;;;;;;;3.00;1.92;;;29.30;70.50;;;;;;4156430;28;20532;-62
2021/06/10 06:18:48;;;;;;;6.03;1.90;;;31.30;62.60;;;;;;4157023;28;20041;-62
2021/06/10 06:20:51;;;;;;;9.50;2.28;;;31.10;62.40;;;;;;4156674;28;20026;-63
2021/06/10 06:22:53;;;;;;;3.15;2.20;;;30.40;62.70;;;;;;4155703;28;20087;-63
2021/06/10 06:24:54;;;;;;;9.77;2.50;;;30.10;63.00;;;;;;4156557;28;20033;-63
2021/06/10 06:26:55;;;;;;;8.73;2.72;;;30.10;63.60;;;;;;4155931;28;20033;-62
2021/06/10 06:29:01;;;;;;;4.38;2.60;;;30.30;63.20;;;;;;4156559;28;20532;-62
2021/06/10 06:31:02;;;;;;;5.60;2.55;;;30.60;63.40;;;;;;4155528;28;20799;-64
2021/06/10 06:33:04;;;;;;;6.78;2.17;;;30.50;62.40;;;;;;4156732;28;20017;-61
2021/06/10 06:35:07;;;;;;;4.40;2.63;;;30.80;62.30;;;;;;4156607;28;20469;-62
2021/06/10 06:37:10;;;;;;;3.30;2.40;;;31.10;62.00;;;;;;4156243;28;20045;-63
2021/06/10 06:39:13;;;;;;;4.85;2.45;;;31.30;61.60;;;;;;4137893;28;20530;-62
2021/06/10 06:41:15;;;;;;;10.57;2.38;;;31.50;60.90;;;;;;4156170;28;20551;-63
2021/06/10 06:43:16;;;;;;;4.82;2.53;;;31.10;60.90;;;;;;4156301;28;20371;-62
2021/06/10 06:45:17;;;;;;;8.40;3.75;;;30.10;61.40;;;;;;4156346;28;20974;-62
2021/06/10 06:47:19;;;;;;;8.18;3.22;;;29.60;62.80;;;;;;4154807;28;20037;-62
2021/06/10 06:49:20;;;;;;;5.93;3.10;;;29.80;62.90;;;;;;4155555;28;20103;-63
2021/06/10 06:51:21;;;;;;;10.18;2.60;;;30.00;62.10;;;;;;4156258;28;20033;-63
2021/06/10 06:53:22;;;;;;;7.95;2.55;;;29.80;61.30;;;;;;4156084;28;20486;-65
2021/06/10 06:55:23;;;;;;;7.22;3.28;;;29.50;61.00;;;;;;4156169;28;20121;-62
2021/06/10 06:57:24;;;;;;;6.07;2.42;;;29.40;61.00;;;;;;4155488;28;20111;-62
2021/06/10 06:59:26;;;;;;;4.30;2.42;;;29.20;61.20;;;;;;4156118;28;20078;-62
2021/06/10 07:01:27;;;;;;;2.03;1.80;;;29.10;61.00;;;;;;4156098;28;20037;-62
2021/06/10 07:03:28;;;;;;;3.53;2.10;;;29.00;60.70;;;;;;4156283;28;20037;-63
2021/06/10 07:05:29;;;;;;;4.10;2.10;;;28.80;60.30;;;;;;4155459;28;20084;-63
2021/06/10 07:07:30;;;;;;;9.35;2.95;;;28.80;60.00;;;;;;4156295;28;20026;-63
2021/06/10 07:09:33;;;;;;;16.42;4.35;;;28.10;60.30;;;;;;4156142;28;20096;-62
2021/06/10 07:11:35;;;;;;;5.90;2.50;;;28.00;61.50;;;;;;4156494;28;20037;-62
2021/06/10 07:13:36;;;;;;;2.95;2.45;;;27.50;60.00;;;;;;4155144;28;20046;-61
2021/06/10 07:15:39;;;;;;;4.38;2.60;;;27.30;59.20;;;;;;4156359;28;20425;-62
2021/06/10 07:17:40;;;;;;;2.53;1.85;;;26.70;59.90;;;;;;4153860;28;20107;-62
2021/06/10 07:19:41;;;;;;;3.53;2.63;;;27.10;60.30;;;;;;4155136;28;20034;-62
2021/06/10 07:21:45;;;;;;;7.97;2.17;;;27.30;59.30;;;;;;4155134;28;20037;-62
2021/06/10 07:23:46;;;;;;;3.08;1.55;;;26.80;59.00;;;;;;4138132;28;20426;-63
2021/06/10 07:25:47;;;;;;;3.25;2.55;;;26.30;59.00;;;;;;4155113;28;20042;-62
2021/06/10 07:27:50;;;;;;;4.32;2.28;;;25.90;59.80;;;;;;4155152;28;20045;-61
2021/06/10 07:29:53;;;;;;;7.50;2.80;;;26.30;61.20;;;;;;4155294;28;20579;-62
2021/06/10 07:31:54;;;;;;;3.70;2.58;;;26.30;61.80;;;;;;4155677;28;20033;-62
2021/06/10 07:33:55;;;;;;;4.47;2.97;;;26.30;62.70;;;;;;4155060;28;20108;-62
2021/06/10 07:35:56;;;;;;;3.60;2.13;;;26.50;62.70;;;;;;4154784;28;20041;-63
2021/06/10 07:37:57;;;;;;;4.22;1.95;;;26.80;62.30;;;;;;4154431;28;20041;-62
2021/06/10 07:39:58;;;;;;;4.50;2.20;;;27.00;61.90;;;;;;4155354;28;20087;-62
2021/06/10 07:42:00;;;;;;;2.83;1.95;;;27.10;61.80;;;;;;4155985;28;20041;-62
2021/06/10 07:44:01;;;;;;;2.80;2.03;;;27.20;61.60;;;;;;4155390;28;20065;-62
2021/06/10 07:46:02;;;;;;;6.15;2.85;;;27.30;61.50;;;;;;4155376;28;20033;-62
2021/06/10 07:48:04;;;;;;;3.90;1.95;;;27.20;61.30;;;;;;4154176;28;20072;-63
2021/06/10 07:50:07;;;;;;;4.28;1.90;;;27.20;60.90;;;;;;4155970;28;20107;-62
2021/06/10 07:52:09;;;;;;;2.35;2.15;;;27.30;60.80;;;;;;4154076;28;20103;-62
2021/06/10 07:54:10;;;;;;;2.25;2.05;;;27.40;61.20;;;;;;4155582;28;20084;-63
2021/06/10 07:56:11;;;;;;;4.03;2.10;;;27.40;61.10;;;;;;4153935;28;20110;-62
2021/06/10 07:58:12;;;;;;;2.63;1.88;;;27.30;61.20;;;;;;4154786;28;20115;-62
2021/06/10 08:00:14;;;;;;;4.22;2.05;;;27.40;61.40;;;;;;4154902;28;20033;-62
2021/06/10 08:02:15;;;;;;;4.05;2.33;;;27.30;60.50;;;;;;4121151;28;20105;-62
2021/06/10 08:04:17;;;;;;;4.80;1.90;;;27.30;60.70;;;;;;4155668;28;20154;-62
2021/06/10 08:06:18;;;;;;;3.17;2.22;;;27.30;60.60;;;;;;4155092;28;20420;-62
2021/06/10 08:08:19;;;;;;;4.35;2.20;;;27.30;60.80;;;;;;4154395;28;20041;-62
2021/06/10 08:10:21;;;;;;;2.35;1.73;;;27.40;61.20;;;;;;4158095;28;20049;-61
2021/06/10 08:12:25;;;;;;;6.18;1.85;;;27.50;61.40;;;;;;4159113;28;20468;-62
2021/06/10 08:14:26;;;;;;;5.88;2.13;;;27.50;61.30;;;;;;4158460;28;20041;-62
2021/06/10 08:16:27;;;;;;;12.38;4.05;;;27.60;61.10;;;;;;4158046;28;20083;-63
2021/06/10 08:18:29;;;;;;;19.45;3.10;;;27.20;60.20;;;;;;4158306;28;20099;-62
2021/06/10 08:20:31;;;;;;;7.75;2.30;;;27.00;59.60;;;;;;4158391;28;20829;-62
2021/06/10 08:22:32;;;;;;;6.30;2.75;;;27.00;58.90;;;;;;4157092;28;20033;-62
2021/06/10 08:24:33;;;;;;;3.70;1.73;;;27.10;58.00;;;;;;4157885;28;20413;-63
2021/06/10 08:26:34;;;;;;;4.03;2.13;;;26.50;57.70;;;;;;4158024;28;20099;-61
2021/06/10 08:28:36;;;;;;;20.08;2.80;;;26.20;58.40;;;;;;4141046;28;20104;-61
2021/06/10 08:30:39;;;;;;;4.18;2.28;;;25.90;59.40;;;;;;4157212;28;20824;-62
2021/06/10 08:32:40;;;;;;;3.78;1.88;;;25.80;60.00;;;;;;4158431;28;20083;-62
2021/06/10 08:34:41;;;;;;;5.28;2.63;;;25.60;59.80;;;;;;4157906;28;20033;-62
2021/06/10 08:36:42;;;;;;;6.45;2.22;;;25.70;60.30;;;;;;4157613;28;20033;-62
2021/06/10 08:38:43;;;;;;;2.53;2.00;;;26.00;60.50;;;;;;4157822;28;20200;-62
2021/06/10 08:40:45;;;;;;;2.15;2.05;;;26.30;60.20;;;;;;4158399;28;20422;-62
2021/06/10 08:42:47;;;;;;;2.85;1.92;;;26.60;59.70;;;;;;4158589;28;20111;-62
2021/06/10 08:44:49;;;;;;;9.25;2.95;;;26.60;59.40;;;;;;4140680;28;20045;-62
2021/06/10 08:46:51;;;;;;;3.97;1.90;;;26.70;59.30;;;;;;4158081;28;20103;-61
2021/06/10 08:48:53;;;;;;;6.80;2.78;;;26.10;58.60;;;;;;4157821;28;20029;-62
2021/06/10 08:50:54;;;;;;;2.30;2.10;;;25.80;58.20;;;;;;4158074;28;20637;-61
2021/06/10 08:52:56;;;;;;;2.30;1.90;;;25.40;58.10;;;;;;4157805;28;20745;-61
2021/06/10 08:54:58;;;;;;;5.97;2.63;;;25.50;59.00;;;;;;4158010;28;20064;-61
2021/06/10 08:57:00;;;;;;;4.68;2.45;;;25.80;59.30;;;;;;4157427;28;20142;-61
2021/06/10 08:59:01;;;;;;;5.10;2.22;;;25.70;60.00;;;;;;4158257;28;20021;-62
2021/06/10 09:01:03;;;;;;;3.80;2.72;;;25.50;60.50;;;;;;4157162;28;20045;-61
2021/06/10 09:03:06;;;;;;;3.90;2.25;;;25.60;61.10;;;;;;4157973;28;20029;-63
2021/06/10 09:05:11;;;;;;;4.32;2.10;;;25.80;60.80;;;;;;4157295;28;20030;-62
2021/06/10 09:07:12;;;;;;;3.53;1.92;;;26.10;59.80;;;;;;4156230;28;20045;-61
2021/06/10 09:09:16;;;;;;;5.53;2.80;;;26.30;59.90;;;;;;4157563;28;20037;-61
2021/06/10 09:11:22;;;;;;;13.70;3.50;;;26.20;59.10;;;;;;4157737;28;20099;-62
2021/06/10 09:13:55;;;;;;;12.10;3.55;;;25.80;59.50;;;;;;4157886;28;20029;-63
2021/06/10 09:15:59;;;;;;;7.10;2.83;;;25.70;59.20;;;;;;4156925;28;20505;-62
2021/06/10 09:18:02;;;;;;;4.97;3.08;;;25.60;59.90;;;;;;4157019;28;20087;-62
2021/06/10 09:20:23;;;;;;;2.15;1.95;;;25.70;60.20;;;;;;4157199;28;20072;-61
2021/06/10 09:22:29;;;;;;;3.88;2.47;;;26.00;60.00;;;;;;4157215;28;20041;-62
2021/06/10 09:24:39;;;;;;;4.35;2.45;;;26.30;59.30;;;;;;4139919;28;20096;-62
2021/06/10 09:26:40;;;;;;;6.15;2.47;;;26.20;58.60;;;;;;4157680;28;20034;-62
2021/06/10 09:28:43;;;;;;;5.45;2.75;;;26.10;58.70;;;;;;4157454;28;20037;-62
2021/06/10 09:30:52;;;;;;;3.97;2.70;;;26.10;59.20;;;;;;4157396;28;20026;-62
2021/06/10 09:32:53;;;;;;;5.05;3.22;;;26.10;59.60;;;;;;4156610;28;20123;-63
2021/06/10 09:35:04;;;;;;;3.75;3.05;;;26.00;59.50;;;;;;4156587;28;20457;-63
2021/06/10 09:37:05;;;;;;;9.95;2.45;;;25.70;59.70;;;;;;4156659;28;20513;-63
2021/06/10 09:39:15;;;;;;;4.90;2.13;;;25.80;59.80;;;;;;4157251;28;20017;-63
2021/06/10 09:41:16;;;;;;;;;;;25.90;59.90;;;;;;4157988;28;20492;-63
2021/06/10 09:43:20;;;;;;;2.28;1.90;;;25.80;59.20;;;;;;4157484;28;19910;-63
2021/06/10 09:45:24;;;;;;;3.75;2.67;;;25.80;60.00;;;;;;4155883;28;20037;-62
2021/06/10 09:47:31;;;;;;;4.07;2.60;;;25.60;60.20;;;;;;4157376;28;20159;-63
2021/06/10 09:49:33;;;;;;;13.93;3.55;;;25.60;61.00;;;;;;4156934;28;20037;-62
2021/06/10 09:51:34;;;;;;;2.70;2.38;;;25.70;60.90;;;;;;4156042;28;20045;-63
2021/06/10 09:53:36;;;;;;;2.03;1.90;;;25.80;61.00;;;;;;4155771;28;20044;-62
2021/06/10 09:55:46;;;;;;;6.40;2.47;;;25.90;60.90;;;;;;4157487;28;20113;-63
2021/06/10 09:57:47;;;;;;;3.47;2.13;;;25.80;61.00;;;;;;4156219;28;20067;-63
2021/06/10 09:59:54;;;;;;;4.63;3.10;;;25.80;61.10;;;;;;4156920;28;20041;-64
2021/06/10 10:02:15;;;;;;;10.63;3.22;;;25.70;60.90;;;;;;4155765;28;20107;-62
2021/06/10 10:04:16;;;;;;;7.65;3.72;;;25.30;60.80;;;;;;4156785;28;20116;-64
2021/06/10 10:06:21;;;;;;;12.07;3.05;;;24.90;61.90;;;;;;4155416;28;20096;-63
2021/06/10 10:08:22;;;;;;;11.38;3.47;;;24.90;62.70;;;;;;4155813;28;20444;-62
2021/06/10 10:10:24;;;;;;;4.55;2.65;;;25.10;62.80;;;;;;4155867;28;20054;-62
2021/06/10 10:12:27;;;;;;;11.63;3.35;;;25.20;62.70;;;;;;4157409;28;20041;-62
2021/06/10 10:14:29;;;;;;;9.55;2.60;;;25.30;62.20;;;;;;4156651;28;20068;-62
2021/06/10 10:16:32;;;;;;;8.90;2.90;;;25.40;62.20;;;;;;4122555;28;20054;-63
2021/06/10 10:18:34;;;;;;;7.60;2.70;;;25.40;62.20;;;;;;4156231;28;20033;-63
2021/06/10 10:20:37;;;;;;;13.52;3.30;;;25.50;62.20;;;;;;4156309;28;20052;-62
2021/06/10 10:22:39;;;;;;;7.78;2.90;;;25.70;62.60;;;;;;4154864;28;20100;-62
2021/06/10 10:24:41;;;;;;;2.75;2.53;;;25.40;62.50;;;;;;4155042;28;20084;-63
2021/06/10 10:26:42;;;;;;;2.78;2.35;;;25.40;62.20;;;;;;4155643;28;20103;-62
2021/06/10 10:28:44;;;;;;;5.30;2.80;;;25.50;62.10;;;;;;4156208;28;20044;-63
2021/06/10 10:30:46;;;;;;;2.95;2.10;;;25.70;62.20;;;;;;4156152;28;20045;-63
2021/06/10 10:32:47;;;;;;;4.90;2.47;;;25.70;62.00;;;;;;4154166;28;20444;-63
2021/06/10 10:34:49;;;;;;;4.57;2.83;;;25.70;62.10;;;;;;4156922;28;20095;-62
2021/06/10 10:36:51;;;;;;;2.40;2.17;;;25.70;62.10;;;;;;4156426;28;20041;-62
2021/06/10 10:38:57;;;;;;;5.68;2.35;;;25.70;61.90;;;;;;4156015;28;20095;-62
2021/06/10 10:41:05;;;;;;;8.65;1.90;;;25.70;60.10;;;;;;4156082;28;20564;-62
2021/06/10 10:43:12;;;;;;;4.38;1.85;;;25.60;60.40;;;;;;4156874;28;20030;-61